Hobbs, New Mexico
Current Conditions -  °F | °C
As of 1:50 PM on Saturday 22 Nov 2014 (Local Time) from KHOB Reporting Station
Clear Clear  
Wind Chill: 20°   Ceiling: Unl
Heat Index: 20°   Visibility: 10mi
Dew Point:   Wind: 12mph
Humidity: 26%   Direction: 270°W
Pressure: 29.83"   Gusts: NA
Location:  32.7°N, 103.12°W
Report Text: KHOB 222050Z 27010KT 10SM SKC 20/00 A2983
Loading
Personal Weather Stations






























Interactive Weather Map New forecast layout! Learn more

10-Day Weather Forecast

Advertisements
Track Severe Weather on mobile